createdAt,value
2019-01-03T00:00:08.113Z,-1.60
2019-01-03T00:01:07.945Z,-1.46
2019-01-03T00:02:09.053Z,-1.53
2019-01-03T00:03:07.946Z,-1.54
2019-01-03T00:04:09.114Z,-1.54
2019-01-03T00:05:07.870Z,-1.66
2019-01-03T00:06:07.982Z,-1.58
2019-01-03T00:07:07.858Z,-1.66
2019-01-03T00:08:07.971Z,-1.46
2019-01-03T00:09:07.831Z,-1.45
2019-01-03T00:10:07.996Z,-1.39
2019-01-03T00:11:07.819Z,-1.38
2019-01-03T00:12:07.908Z,-1.33
2019-01-03T00:13:07.793Z,-1.27
2019-01-03T00:14:07.908Z,-1.24
2019-01-03T00:15:07.757Z,-1.22
2019-01-03T00:16:07.953Z,-1.11
2019-01-03T00:17:07.736Z,-1.19
2019-01-03T00:18:07.825Z,-1.06
2019-01-03T00:19:07.739Z,-1.21
2019-01-03T00:20:07.878Z,-1.06
2019-01-03T00:21:07.746Z,-1.21
2019-01-03T00:22:07.851Z,-1.18
2019-01-03T00:23:07.674Z,-1.21
2019-01-03T00:24:07.766Z,-1.17
2019-01-03T00:25:07.671Z,-1.00
2019-01-03T00:26:07.837Z,-1.00
2019-01-03T00:27:07.640Z,-1.04
2019-01-03T00:28:07.721Z,-1.00
2019-01-03T00:29:07.647Z,-0.85
2019-01-03T00:30:07.708Z,-0.91
2019-01-03T00:31:07.627Z,-0.82
2019-01-03T00:32:07.731Z,-0.75
2019-01-03T00:33:07.580Z,-0.72
2019-01-03T00:34:07.727Z,-0.70
2019-01-03T00:35:07.544Z,-0.59
2019-01-03T00:36:07.640Z,-0.48
2019-01-03T00:37:07.548Z,-0.53
2019-01-03T00:38:07.649Z,-0.46
2019-01-03T00:39:07.504Z,-0.35
2019-01-03T00:40:07.599Z,-0.26
2019-01-03T00:41:07.488Z,-0.23
2019-01-03T00:42:07.627Z,-0.10
2019-01-03T00:43:07.488Z,0.00
2019-01-03T00:44:07.602Z,0.09
2019-01-03T00:45:07.479Z,0.06
2019-01-03T00:46:07.622Z,0.05
2019-01-03T00:47:07.437Z,0.15
2019-01-03T00:48:15.131Z,0.20
2019-01-03T00:49:07.401Z,0.26
2019-01-03T00:50:09.583Z,0.16
2019-01-03T00:51:07.377Z,0.33
2019-01-03T00:52:08.504Z,0.34
2019-01-03T00:53:07.356Z,0.29
2019-01-03T00:54:07.475Z,0.27
2019-01-03T00:55:07.335Z,0.24
2019-01-03T00:56:07.479Z,0.39
2019-01-03T00:57:07.342Z,0.37
2019-01-03T00:58:09.442Z,0.51
2019-01-03T00:59:07.324Z,0.55
2019-01-03T01:00:07.402Z,0.55
2019-01-03T01:01:07.296Z,0.52
2019-01-03T01:02:07.452Z,0.56
2019-01-03T01:03:07.246Z,0.59
2019-01-03T01:04:07.425Z,0.61
2019-01-03T01:05:07.244Z,0.64
2019-01-03T01:06:07.347Z,0.66
2019-01-03T01:07:07.218Z,0.64
2019-01-03T01:08:07.352Z,0.64
2019-01-03T01:09:07.183Z,0.73
2019-01-03T01:10:07.384Z,0.67
2019-01-03T01:11:07.176Z,0.74
2019-01-03T01:12:07.303Z,0.71
2019-01-03T01:13:07.138Z,0.78
2019-01-03T01:14:07.304Z,0.84
2019-01-03T01:15:07.148Z,0.85
2019-01-03T01:16:07.313Z,0.78
2019-01-03T01:17:07.120Z,0.89
2019-01-03T01:18:07.230Z,0.91
2019-01-03T01:19:07.075Z,0.91
2019-01-03T01:20:07.258Z,0.92
2019-01-03T01:21:07.064Z,0.86
2019-01-03T01:22:07.264Z,0.88
2019-01-03T01:23:07.053Z,0.94
2019-01-03T01:24:07.159Z,0.94
2019-01-03T01:25:07.018Z,0.95
2019-01-03T01:26:07.200Z,0.99
2019-01-03T01:27:07.027Z,0.94
2019-01-03T01:28:07.194Z,0.88
2019-01-03T01:29:06.999Z,0.95
2019-01-03T01:30:07.127Z,0.89
2019-01-03T01:31:06.968Z,0.95
2019-01-03T01:32:07.126Z,1.02
2019-01-03T01:33:06.939Z,1.04
2019-01-03T01:34:07.129Z,0.94
2019-01-03T01:35:06.924Z,1.02
2019-01-03T01:36:07.032Z,1.04
2019-01-03T01:37:06.886Z,1.07
2019-01-03T01:38:07.065Z,1.03
2019-01-03T01:39:06.886Z,1.09
2019-01-03T01:40:07.068Z,1.06
2019-01-03T01:41:06.860Z,1.03
2019-01-03T01:42:08.003Z,1.02
2019-01-03T01:43:06.837Z,1.09
2019-01-03T01:44:08.939Z,1.10
2019-01-03T01:45:06.801Z,1.09
2019-01-03T01:46:07.001Z,1.12
2019-01-03T01:47:06.799Z,1.04
2019-01-03T01:48:06.936Z,1.09
2019-01-03T01:49:06.760Z,1.10
2019-01-03T01:50:06.920Z,1.21
2019-01-03T01:51:06.733Z,1.18
2019-01-03T01:52:06.934Z,1.20
2019-01-03T01:53:06.729Z,1.16
2019-01-03T01:54:06.850Z,1.16
2019-01-03T01:55:06.694Z,1.22
2019-01-03T01:56:06.857Z,1.21
2019-01-03T01:57:06.668Z,1.22
2019-01-03T01:58:06.805Z,1.25
2019-01-03T01:59:06.654Z,1.24
2019-01-03T02:00:06.798Z,1.25
2019-01-03T02:01:06.639Z,1.24
2019-01-03T02:02:06.800Z,1.30
2019-01-03T02:03:06.628Z,1.32
2019-01-03T02:04:06.715Z,1.40
2019-01-03T02:05:06.593Z,1.36
2019-01-03T02:06:06.724Z,1.42
2019-01-03T02:07:06.567Z,1.43
2019-01-03T02:08:06.772Z,1.32
2019-01-03T02:09:06.563Z,1.43
2019-01-03T02:10:06.660Z,1.39
2019-01-03T02:11:06.517Z,1.34
2019-01-03T02:12:06.561Z,1.45
2019-01-03T02:13:06.525Z,1.48
2019-01-03T02:14:06.675Z,1.48
2019-01-03T02:15:06.479Z,1.43
2019-01-03T02:16:06.582Z,1.43
2019-01-03T02:17:06.462Z,1.56
2019-01-03T02:18:06.628Z,1.53
2019-01-03T02:19:06.431Z,1.57
2019-01-03T02:20:06.641Z,1.52
2019-01-03T02:21:06.427Z,1.52
2019-01-03T02:22:06.541Z,1.57
2019-01-03T02:23:06.436Z,1.64
2019-01-03T02:24:06.584Z,1.48
2019-01-03T02:25:06.406Z,1.58
2019-01-03T02:26:06.551Z,1.74
2019-01-03T02:27:06.352Z,1.61
2019-01-03T02:28:07.492Z,1.61
2019-01-03T02:29:06.353Z,1.63
2019-01-03T02:30:13.239Z,1.63
2019-01-03T02:31:06.323Z,1.64
2019-01-03T02:32:06.486Z,1.81
2019-01-03T02:33:06.286Z,1.68
2019-01-03T02:34:06.436Z,1.76
2019-01-03T02:35:06.289Z,1.66
2019-01-03T02:36:06.414Z,1.79
2019-01-03T02:37:06.240Z,1.71
2019-01-03T02:38:06.435Z,1.81
2019-01-03T02:39:06.250Z,1.78
2019-01-03T02:40:06.359Z,1.74
2019-01-03T02:41:06.200Z,1.76
2019-01-03T02:42:07.381Z,1.71
2019-01-03T02:43:06.175Z,1.71
2019-01-03T02:44:08.350Z,1.75
2019-01-03T02:45:06.163Z,1.79
2019-01-03T02:46:07.310Z,1.74
2019-01-03T02:47:06.138Z,1.78
2019-01-03T02:48:06.293Z,1.71
2019-01-03T02:49:06.134Z,1.78
2019-01-03T02:50:06.305Z,1.75
2019-01-03T02:51:06.096Z,1.66
2019-01-03T02:52:07.245Z,1.78
2019-01-03T02:53:06.114Z,1.75
2019-01-03T02:54:06.266Z,1.70
2019-01-03T02:55:06.057Z,1.75
2019-01-03T02:56:07.174Z,1.61
2019-01-03T02:57:06.028Z,1.57
2019-01-03T02:58:06.170Z,1.63
2019-01-03T02:59:06.040Z,1.61
2019-01-03T03:00:06.175Z,1.61
2019-01-03T03:01:05.998Z,1.57
2019-01-03T03:02:06.183Z,1.50
2019-01-03T03:03:05.974Z,1.42
2019-01-03T03:04:06.117Z,1.48
2019-01-03T03:05:05.944Z,1.46
2019-01-03T03:06:06.109Z,1.48
2019-01-03T03:07:05.926Z,1.45
2019-01-03T03:08:07.045Z,1.48
2019-01-03T03:09:05.924Z,1.46
2019-01-03T03:10:06.035Z,1.45
2019-01-03T03:11:05.902Z,1.40
2019-01-03T03:12:07.078Z,1.43
2019-01-03T03:13:05.868Z,1.39
2019-01-03T03:14:11.130Z,1.45
2019-01-03T03:15:05.850Z,1.38
2019-01-03T03:16:12.644Z,1.39
2019-01-03T03:17:05.841Z,1.38
2019-01-03T03:18:07.016Z,1.43
2019-01-03T03:19:05.815Z,1.42
2019-01-03T03:20:05.998Z,1.45
2019-01-03T03:21:05.805Z,1.46
2019-01-03T03:22:05.906Z,1.48
2019-01-03T03:23:05.753Z,1.43
2019-01-03T03:24:06.168Z,1.43
2019-01-03T03:25:05.725Z,1.45
2019-01-03T03:26:05.987Z,1.46
2019-01-03T03:27:05.727Z,1.42
2019-01-03T03:28:05.863Z,1.43
2019-01-03T03:29:05.694Z,1.46
2019-01-03T03:30:05.896Z,1.50
2019-01-03T03:31:05.679Z,1.49
2019-01-03T03:32:05.860Z,1.45
2019-01-03T03:33:05.662Z,1.49
2019-01-03T03:34:05.831Z,1.46
2019-01-03T03:35:05.641Z,1.48
2019-01-03T03:36:05.806Z,1.46
2019-01-03T03:37:05.601Z,1.56
2019-01-03T03:38:05.714Z,1.49
2019-01-03T03:39:05.601Z,1.50
2019-01-03T03:40:05.774Z,1.48
2019-01-03T03:41:05.565Z,1.52
2019-01-03T03:42:05.747Z,1.48
2019-01-03T03:43:05.549Z,1.45
2019-01-03T03:44:05.657Z,1.49
2019-01-03T03:45:05.544Z,1.48
2019-01-03T03:46:05.681Z,1.52
2019-01-03T03:47:05.490Z,1.46
2019-01-03T03:48:05.682Z,1.48
2019-01-03T03:49:05.491Z,1.48
2019-01-03T03:50:05.634Z,1.46
2019-01-03T03:51:05.454Z,1.49
2019-01-03T03:52:05.627Z,1.36
2019-01-03T03:53:05.456Z,1.49
2019-01-03T03:54:05.619Z,1.46
2019-01-03T03:55:05.440Z,1.48
2019-01-03T03:56:05.532Z,1.43
2019-01-03T03:57:05.385Z,1.49
2019-01-03T03:58:05.543Z,1.45
2019-01-03T03:59:05.381Z,1.49
2019-01-03T04:00:05.613Z,1.48
2019-01-03T04:01:05.362Z,1.46
2019-01-03T04:02:05.479Z,1.48
2019-01-03T04:03:05.324Z,1.46
2019-01-03T04:04:13.059Z,1.40
2019-01-03T04:05:05.333Z,1.43
2019-01-03T04:06:06.418Z,1.48
2019-01-03T04:07:05.296Z,1.49
2019-01-03T04:08:05.405Z,1.48
2019-01-03T04:09:05.261Z,1.42
2019-01-03T04:10:05.448Z,1.46
2019-01-03T04:11:05.239Z,1.45
2019-01-03T04:12:05.438Z,1.40
2019-01-03T04:13:05.226Z,1.34
2019-01-03T04:14:05.338Z,1.39
2019-01-03T04:15:05.208Z,1.40
2019-01-03T04:16:05.362Z,1.36
2019-01-03T04:17:05.202Z,1.36
2019-01-03T04:18:05.379Z,1.30
2019-01-03T04:19:05.159Z,1.43
2019-01-03T04:20:05.326Z,1.40
2019-01-03T04:21:05.126Z,1.28
2019-01-03T04:22:05.298Z,1.24
2019-01-03T04:23:05.112Z,1.27
2019-01-03T04:24:05.313Z,1.30
2019-01-03T04:25:05.136Z,1.30
2019-01-03T04:26:05.222Z,1.24
2019-01-03T04:27:05.122Z,1.27
2019-01-03T04:28:05.233Z,1.24
2019-01-03T04:29:05.064Z,1.24
2019-01-03T04:30:05.266Z,1.34
2019-01-03T04:31:05.125Z,1.34
2019-01-03T04:32:05.068Z,1.45
2019-01-03T04:33:04.999Z,1.34
2019-01-03T04:34:05.080Z,1.40
2019-01-03T04:35:04.987Z,1.45
2019-01-03T04:36:14.020Z,1.48
2019-01-03T04:37:04.962Z,1.49
2019-01-03T04:38:07.056Z,1.42
2019-01-03T04:39:04.932Z,1.52
2019-01-03T04:40:05.006Z,1.42
2019-01-03T04:41:04.925Z,1.46
2019-01-03T04:42:06.994Z,1.50
2019-01-03T04:43:04.899Z,1.39
2019-01-03T04:44:04.948Z,1.46
2019-01-03T04:45:04.868Z,1.56
2019-01-03T04:46:04.988Z,1.50
2019-01-03T04:47:04.864Z,1.49
2019-01-03T04:48:04.972Z,1.52
2019-01-03T04:49:04.862Z,1.61
2019-01-03T04:50:04.875Z,1.53
2019-01-03T04:51:04.821Z,1.56
2019-01-03T04:52:04.895Z,1.49
2019-01-03T04:53:04.788Z,1.52
2019-01-03T04:54:04.815Z,1.50
2019-01-03T04:55:04.764Z,1.68
2019-01-03T04:56:04.843Z,1.68
2019-01-03T04:57:04.746Z,1.67
2019-01-03T04:58:04.829Z,1.66
2019-01-03T04:59:04.726Z,1.61
2019-01-03T05:00:04.738Z,1.61
2019-01-03T05:01:04.736Z,1.75
2019-01-03T05:02:04.755Z,1.82
2019-01-03T05:03:04.682Z,1.84
2019-01-03T05:04:04.772Z,1.79
2019-01-03T05:05:04.680Z,1.74
2019-01-03T05:06:04.705Z,1.79
2019-01-03T05:07:04.633Z,1.85
2019-01-03T05:08:04.689Z,1.84
2019-01-03T05:09:04.632Z,1.84
2019-01-03T05:10:04.715Z,1.84
2019-01-03T05:11:04.618Z,1.79
2019-01-03T05:12:04.625Z,1.84
2019-01-03T05:13:04.574Z,1.86
2019-01-03T05:14:04.632Z,1.88
2019-01-03T05:15:04.553Z,1.85
2019-01-03T05:16:04.674Z,1.86
2019-01-03T05:17:04.550Z,1.92
2019-01-03T05:18:04.560Z,1.92
2019-01-03T05:19:04.512Z,1.92
2019-01-03T05:20:04.583Z,1.84
2019-01-03T05:21:04.512Z,1.92
2019-01-03T05:22:04.584Z,1.93
2019-01-03T05:23:04.482Z,1.89
2019-01-03T05:24:04.498Z,1.97
2019-01-03T05:25:04.452Z,1.89
2019-01-03T05:26:04.510Z,1.95
2019-01-03T05:27:04.459Z,1.97
2019-01-03T05:28:04.539Z,2.00
2019-01-03T05:29:04.418Z,2.00
2019-01-03T05:30:04.432Z,1.98
2019-01-03T05:31:04.405Z,1.98
2019-01-03T05:32:04.488Z,2.01
2019-01-03T05:33:04.369Z,1.93
2019-01-03T05:34:04.471Z,1.97
2019-01-03T05:35:04.402Z,1.95
2019-01-03T05:36:04.385Z,1.95
2019-01-03T05:37:04.323Z,1.95
2019-01-03T05:38:04.396Z,1.93
2019-01-03T05:39:04.303Z,1.93
2019-01-03T05:40:04.299Z,1.95
2019-01-03T05:41:05.175Z,2.01
2019-01-03T05:42:04.350Z,1.98
2019-01-03T05:43:04.248Z,1.97
2019-01-03T05:44:04.328Z,1.89
2019-01-03T05:45:04.228Z,1.95
2019-01-03T05:46:04.357Z,1.93
2019-01-03T05:47:04.228Z,2.01
2019-01-03T05:48:04.246Z,2.03
2019-01-03T05:49:04.200Z,2.03
2019-01-03T05:50:04.265Z,2.03
2019-01-03T05:51:04.191Z,1.95
2019-01-03T05:52:04.204Z,2.00
2019-01-03T05:53:04.147Z,1.97
2019-01-03T05:54:04.188Z,1.97
2019-01-03T05:55:04.128Z,2.00
2019-01-03T05:56:04.204Z,2.01
2019-01-03T05:57:04.135Z,2.07
2019-01-03T05:58:04.531Z,1.97
2019-01-03T05:59:04.094Z,2.03
2019-01-03T06:00:04.122Z,1.97
2019-01-03T06:01:04.463Z,1.98
2019-01-03T06:02:04.170Z,2.07
2019-01-03T06:03:04.043Z,2.14
2019-01-03T06:04:04.150Z,1.97
2019-01-03T06:05:04.028Z,1.98
2019-01-03T06:06:04.059Z,2.03
2019-01-03T06:07:04.024Z,2.03
2019-01-03T06:08:04.077Z,2.03
2019-01-03T06:09:03.979Z,1.97
2019-01-03T06:10:04.088Z,1.97
2019-01-03T06:11:03.970Z,1.98
2019-01-03T06:12:09.454Z,2.07
2019-01-03T06:13:03.926Z,1.98
2019-01-03T06:14:04.028Z,1.95
2019-01-03T06:15:03.920Z,1.98
2019-01-03T06:16:10.477Z,2.04
2019-01-03T06:17:03.906Z,1.97
2019-01-03T06:18:07.964Z,1.95
2019-01-03T06:19:03.859Z,1.97
2019-01-03T06:20:03.951Z,1.98
2019-01-03T06:21:04.023Z,2.08
2019-01-03T06:22:03.865Z,1.97
2019-01-03T06:23:03.833Z,2.00
2019-01-03T06:24:03.875Z,2.00
2019-01-03T06:25:03.804Z,2.01
2019-01-03T06:26:03.896Z,2.00
2019-01-03T06:27:03.774Z,2.00
2019-01-03T06:28:03.826Z,1.98
2019-01-03T06:29:03.757Z,2.00
2019-01-03T06:30:03.813Z,2.05
2019-01-03T06:31:03.734Z,2.00
2019-01-03T06:32:03.833Z,2.03
2019-01-03T06:33:03.741Z,1.95
2019-01-03T06:34:03.743Z,1.98
2019-01-03T06:35:03.691Z,1.92
2019-01-03T06:36:03.763Z,1.95
2019-01-03T06:37:03.667Z,1.92
2019-01-03T06:38:03.809Z,1.97
2019-01-03T06:39:03.660Z,1.98
2019-01-03T06:40:03.685Z,1.98
2019-01-03T06:41:03.630Z,1.97
2019-01-03T06:42:03.697Z,1.98
2019-01-03T06:43:03.643Z,1.98
2019-01-03T06:44:03.722Z,1.92
2019-01-03T06:45:03.584Z,2.05
2019-01-03T06:46:03.620Z,2.01
2019-01-03T06:47:03.581Z,2.08
2019-01-03T06:48:03.631Z,2.03
2019-01-03T06:49:03.572Z,1.98
2019-01-03T06:50:03.652Z,2.04
2019-01-03T06:51:03.538Z,2.08
2019-01-03T06:52:03.557Z,1.98
2019-01-03T06:53:03.505Z,2.01
2019-01-03T06:54:03.610Z,2.03
2019-01-03T06:55:03.473Z,2.03
2019-01-03T06:56:03.587Z,2.03
2019-01-03T06:57:03.460Z,2.03
2019-01-03T06:58:03.533Z,2.04
2019-01-03T06:59:03.446Z,1.98
2019-01-03T07:00:04.571Z,1.98
2019-01-03T07:01:03.418Z,1.95
2019-01-03T07:02:04.443Z,1.88
2019-01-03T07:03:03.412Z,2.03
2019-01-03T07:04:04.490Z,1.98
2019-01-03T07:05:03.431Z,1.98
2019-01-03T07:06:04.472Z,1.97
2019-01-03T07:07:03.359Z,2.03
2019-01-03T07:08:03.489Z,2.03
2019-01-03T07:09:03.340Z,2.03
2019-01-03T07:10:03.371Z,2.00
2019-01-03T07:11:03.312Z,2.01
2019-01-03T07:12:03.396Z,1.92
2019-01-03T07:13:03.295Z,1.97
2019-01-03T07:14:03.533Z,2.04
2019-01-03T07:15:03.284Z,1.98
2019-01-03T07:16:03.311Z,2.00
2019-01-03T07:17:03.242Z,2.01
2019-01-03T07:18:03.329Z,2.03
2019-01-03T07:19:03.247Z,2.03
2019-01-03T07:20:03.366Z,2.05
2019-01-03T07:21:03.196Z,2.03
2019-01-03T07:22:03.255Z,2.00
2019-01-03T07:23:03.173Z,1.98
2019-01-03T07:24:03.307Z,2.12
2019-01-03T07:25:03.176Z,2.00
2019-01-03T07:26:03.279Z,1.97
2019-01-03T07:27:03.158Z,2.01
2019-01-03T07:28:03.197Z,2.03
2019-01-03T07:29:03.126Z,1.98
2019-01-03T07:30:03.216Z,1.98
2019-01-03T07:31:03.096Z,1.95
2019-01-03T07:32:03.260Z,2.08
2019-01-03T07:33:03.082Z,2.07
2019-01-03T07:34:03.164Z,2.04
2019-01-03T07:35:03.059Z,2.04
2019-01-03T07:36:03.145Z,2.03
2019-01-03T07:37:03.025Z,2.07
2019-01-03T07:38:03.090Z,2.12
2019-01-03T07:39:03.044Z,2.12
2019-01-03T07:40:03.088Z,2.18
2019-01-03T07:41:02.995Z,2.18
2019-01-03T07:42:03.096Z,2.07
2019-01-03T07:43:02.971Z,2.18
2019-01-03T07:44:03.009Z,2.14
2019-01-03T07:45:02.957Z,2.16
2019-01-03T07:46:05.064Z,2.07
2019-01-03T07:47:02.917Z,2.16
2019-01-03T07:48:20.022Z,2.18
2019-01-03T07:49:02.917Z,2.18
2019-01-03T07:50:06.952Z,2.16
2019-01-03T07:51:02.872Z,2.28
2019-01-03T07:52:02.967Z,2.22
2019-01-03T07:53:02.852Z,2.23
2019-01-03T07:54:04.906Z,2.21
2019-01-03T07:55:02.846Z,2.22
2019-01-03T07:56:02.874Z,2.33
2019-01-03T07:57:02.810Z,2.30
2019-01-03T07:58:02.886Z,2.28
2019-01-03T07:59:02.787Z,2.28
2019-01-03T08:00:02.966Z,2.34
2019-01-03T08:01:02.771Z,2.36
2019-01-03T08:02:02.815Z,2.37
2019-01-03T08:03:02.746Z,2.39
2019-01-03T08:04:02.830Z,2.41
2019-01-03T08:05:02.739Z,2.43
2019-01-03T08:06:02.835Z,2.43
2019-01-03T08:07:02.707Z,2.40
2019-01-03T08:08:02.771Z,2.47
2019-01-03T08:09:02.683Z,2.50
2019-01-03T08:10:02.794Z,2.52
2019-01-03T08:11:02.665Z,2.57
2019-01-03T08:12:02.771Z,2.51
2019-01-03T08:13:02.638Z,2.50
2019-01-03T08:14:02.741Z,2.57
2019-01-03T08:15:02.653Z,2.55
2019-01-03T08:16:02.720Z,2.59
2019-01-03T08:17:02.607Z,2.58
2019-01-03T08:18:02.711Z,2.57
2019-01-03T08:19:02.580Z,2.55
2019-01-03T08:20:02.654Z,2.57
2019-01-03T08:21:02.607Z,2.68
2019-01-03T08:22:02.662Z,2.69
2019-01-03T08:23:02.536Z,2.70
2019-01-03T08:24:02.700Z,2.62
2019-01-03T08:25:02.524Z,2.75
2019-01-03T08:26:02.653Z,2.73
2019-01-03T08:27:02.506Z,2.79
2019-01-03T08:28:02.554Z,2.95
2019-01-03T08:29:02.521Z,3.13
2019-01-03T08:30:02.604Z,3.13
2019-01-03T08:31:02.472Z,3.18
2019-01-03T08:32:04.553Z,3.21
2019-01-03T08:33:02.425Z,3.19
2019-01-03T08:34:02.535Z,3.22
2019-01-03T08:35:02.406Z,3.18
2019-01-03T08:36:04.534Z,3.26
2019-01-03T08:37:02.385Z,3.11
2019-01-03T08:38:03.465Z,3.11
2019-01-03T08:39:02.362Z,3.16
2019-01-03T08:40:02.453Z,3.11
2019-01-03T08:41:02.371Z,3.08
2019-01-03T08:42:02.471Z,3.11
2019-01-03T08:43:02.374Z,3.08
2019-01-03T08:44:02.376Z,3.03
2019-01-03T08:45:02.303Z,3.05
2019-01-03T08:46:02.418Z,3.01
2019-01-03T08:47:02.284Z,3.00
2019-01-03T08:48:02.407Z,3.03
2019-01-03T08:49:02.249Z,3.06
2019-01-03T08:50:02.322Z,3.01
2019-01-03T08:51:02.249Z,3.05
2019-01-03T08:52:02.309Z,3.05
2019-01-03T08:53:02.211Z,3.16
2019-01-03T08:54:02.352Z,3.16
2019-01-03T08:55:02.187Z,3.26
2019-01-03T08:56:02.295Z,3.21
2019-01-03T08:57:02.196Z,3.19
2019-01-03T08:58:02.286Z,3.34
2019-01-03T08:59:02.144Z,3.41
2019-01-03T09:00:02.190Z,3.29
2019-01-03T09:01:02.149Z,3.33
2019-01-03T09:02:02.275Z,3.45
2019-01-03T09:03:02.101Z,3.46
2019-01-03T09:04:02.175Z,3.46
2019-01-03T09:05:02.094Z,3.49
2019-01-03T09:06:02.148Z,3.49
2019-01-03T09:07:02.055Z,3.58
2019-01-03T09:08:02.249Z,3.45
2019-01-03T09:09:02.077Z,3.63
2019-01-03T09:10:02.150Z,3.53
2019-01-03T09:11:02.030Z,3.66
2019-01-03T09:12:02.062Z,3.59
2019-01-03T09:13:01.994Z,3.70
2019-01-03T09:14:02.092Z,3.71
2019-01-03T09:15:01.971Z,3.76
2019-01-03T09:16:02.090Z,3.92
2019-01-03T09:17:01.957Z,4.28
2019-01-03T09:18:02.008Z,4.64
2019-01-03T09:19:01.929Z,4.89
2019-01-03T09:20:02.027Z,4.86
2019-01-03T09:21:01.922Z,4.98
2019-01-03T09:22:03.995Z,5.41
2019-01-03T09:23:01.890Z,5.36
2019-01-03T09:24:01.935Z,5.34
2019-01-03T09:25:01.873Z,5.55
2019-01-03T09:26:01.970Z,5.56
2019-01-03T09:27:01.860Z,5.94
2019-01-03T09:28:02.933Z,6.02
2019-01-03T09:29:01.833Z,5.92
2019-01-03T09:30:01.877Z,5.47
2019-01-03T09:31:01.799Z,5.29
2019-01-03T09:32:01.950Z,5.19
2019-01-03T09:33:01.798Z,5.15
2019-01-03T09:34:01.901Z,5.37
2019-01-03T09:35:01.762Z,5.41
2019-01-03T09:36:01.819Z,5.94
2019-01-03T09:37:01.747Z,5.95
2019-01-03T09:38:01.826Z,5.99
2019-01-03T09:39:01.713Z,5.87
2019-01-03T09:40:01.840Z,5.55
2019-01-03T09:41:01.697Z,5.34
2019-01-03T09:42:01.807Z,5.19
2019-01-03T09:43:02.487Z,4.97
2019-01-03T09:44:01.763Z,4.90
2019-01-03T09:45:01.652Z,4.70
2019-01-03T09:46:02.706Z,4.74
2019-01-03T09:47:01.641Z,4.71
2019-01-03T09:48:01.718Z,4.74
2019-01-03T09:49:01.608Z,4.64
2019-01-03T09:50:01.703Z,4.56
2019-01-03T09:51:01.579Z,4.58
2019-01-03T09:52:01.708Z,4.46
2019-01-03T09:53:01.570Z,4.48
2019-01-03T09:54:01.627Z,4.39
2019-01-03T09:55:01.535Z,4.36
2019-01-03T09:56:01.641Z,4.30
2019-01-03T09:57:01.544Z,4.28
2019-01-03T09:58:01.556Z,4.18
2019-01-03T09:59:01.504Z,4.20
2019-01-03T10:00:01.567Z,4.16
2019-01-03T10:01:01.468Z,4.16
2019-01-03T10:02:01.509Z,4.12
2019-01-03T10:03:01.470Z,4.14
2019-01-03T10:04:03.541Z,4.14
2019-01-03T10:05:01.451Z,4.09
2019-01-03T10:06:01.507Z,4.10
2019-01-03T10:07:01.420Z,4.21
2019-01-03T10:08:01.428Z,4.14
2019-01-03T10:09:01.408Z,4.32
2019-01-03T10:10:08.920Z,4.36
2019-01-03T10:11:01.376Z,4.34
2019-01-03T10:12:03.535Z,4.30
2019-01-03T10:13:01.336Z,4.30
2019-01-03T10:14:01.361Z,4.24
2019-01-03T10:15:01.375Z,4.24
2019-01-03T10:16:01.382Z,4.31
2019-01-03T10:17:01.316Z,4.30
2019-01-03T10:18:01.414Z,4.25
2019-01-03T10:19:01.277Z,4.30
2019-01-03T10:20:01.404Z,4.27
2019-01-03T10:21:01.263Z,4.24
2019-01-03T10:22:01.315Z,4.36
2019-01-03T10:23:01.254Z,4.40
2019-01-03T10:24:01.341Z,4.36
2019-01-03T10:25:01.214Z,4.48
2019-01-03T10:26:01.232Z,4.43
2019-01-03T10:27:01.188Z,4.48
2019-01-03T10:28:01.287Z,4.57
2019-01-03T10:29:01.166Z,4.60
2019-01-03T10:30:01.264Z,4.56
2019-01-03T10:31:01.156Z,4.42
2019-01-03T10:32:01.176Z,4.50
2019-01-03T10:33:01.143Z,4.63
2019-01-03T10:34:01.196Z,4.49
2019-01-03T10:35:01.103Z,4.53
2019-01-03T10:36:01.198Z,4.64
2019-01-03T10:37:01.079Z,4.68
2019-01-03T10:38:01.164Z,4.78
2019-01-03T10:39:01.063Z,4.74
2019-01-03T10:40:01.154Z,4.83
2019-01-03T10:41:01.034Z,4.86
2019-01-03T10:42:01.041Z,4.83
2019-01-03T10:43:01.030Z,4.83
2019-01-03T10:44:01.050Z,4.76
2019-01-03T10:45:01.000Z,4.76
2019-01-03T10:46:01.070Z,4.79
2019-01-03T10:47:00.990Z,4.70
2019-01-03T10:48:01.025Z,4.75
2019-01-03T10:49:00.967Z,4.75
2019-01-03T10:50:01.011Z,4.83
2019-01-03T10:51:00.944Z,4.86
2019-01-03T10:52:02.956Z,4.84
2019-01-03T10:53:00.979Z,4.86
2019-01-03T10:54:00.933Z,4.76
2019-01-03T10:55:00.898Z,4.75
2019-01-03T10:56:02.991Z,4.67
2019-01-03T10:57:00.865Z,4.56
2019-01-03T10:58:01.927Z,4.56
2019-01-03T10:59:00.842Z,4.60
2019-01-03T11:00:00.958Z,4.66
2019-01-03T11:01:00.820Z,4.56
2019-01-03T11:02:00.910Z,4.53
2019-01-03T11:03:00.844Z,4.53
2019-01-03T11:04:00.918Z,4.57
2019-01-03T11:05:00.775Z,4.50
2019-01-03T11:06:00.806Z,4.50
2019-01-03T11:07:00.757Z,4.42
2019-01-03T11:08:00.858Z,4.46
2019-01-03T11:09:00.777Z,4.48
2019-01-03T11:10:00.861Z,4.49
2019-01-03T11:11:02.201Z,4.46
2019-01-03T11:12:00.731Z,4.52
2019-01-03T11:13:00.727Z,4.50
2019-01-03T11:14:01.839Z,4.45
2019-01-03T11:15:00.693Z,4.49
2019-01-03T11:16:00.762Z,4.58
2019-01-03T11:17:00.653Z,4.53
2019-01-03T11:18:00.722Z,4.45
2019-01-03T11:19:00.651Z,4.57
2019-01-03T11:20:00.689Z,4.64
2019-01-03T11:21:00.614Z,4.49
2019-01-03T11:22:00.697Z,4.49
2019-01-03T11:23:00.603Z,4.49
2019-01-03T11:24:00.618Z,4.56
2019-01-03T11:25:00.574Z,4.50
2019-01-03T11:26:00.622Z,4.58
2019-01-03T11:27:00.559Z,4.61
2019-01-03T11:28:00.568Z,4.70
2019-01-03T11:29:00.537Z,4.75
2019-01-03T11:30:00.555Z,4.67
2019-01-03T11:31:00.506Z,4.75
2019-01-03T11:32:00.602Z,4.83
2019-01-03T11:33:00.513Z,4.82
2019-01-03T11:34:00.576Z,4.83
2019-01-03T11:35:00.453Z,4.89
2019-01-03T11:36:00.536Z,5.01
2019-01-03T11:37:00.443Z,4.94
2019-01-03T11:38:00.635Z,5.07
2019-01-03T11:39:00.411Z,5.01
2019-01-03T11:40:00.447Z,4.90
2019-01-03T11:41:00.389Z,4.92
2019-01-03T11:42:01.466Z,5.00
2019-01-03T11:43:00.378Z,4.90
2019-01-03T11:44:00.491Z,4.97
2019-01-03T11:45:00.388Z,5.05
2019-01-03T11:46:01.431Z,5.15
2019-01-03T11:47:00.323Z,4.97
2019-01-03T11:48:00.365Z,5.07
2019-01-03T11:49:00.322Z,4.97
2019-01-03T11:50:00.382Z,5.12
2019-01-03T11:51:00.324Z,5.16
2019-01-03T11:52:00.293Z,5.22
2019-01-03T11:53:00.274Z,5.29
2019-01-03T11:54:00.346Z,5.28
2019-01-03T11:55:00.267Z,5.29
2019-01-03T11:56:00.323Z,5.36
2019-01-03T11:57:00.229Z,5.41
2019-01-03T11:58:00.247Z,5.34
2019-01-03T11:59:00.215Z,5.33
2019-01-03T12:00:00.261Z,5.34
2019-01-03T12:01:00.178Z,5.33
2019-01-03T12:02:00.257Z,5.37
2019-01-03T12:03:00.151Z,5.33
2019-01-03T12:04:00.204Z,5.38
2019-01-03T12:05:00.160Z,5.38
2019-01-03T12:06:00.186Z,5.36
2019-01-03T12:07:00.137Z,5.44
2019-01-03T12:08:00.206Z,5.46
2019-01-03T12:09:00.110Z,5.38
2019-01-03T12:10:00.171Z,5.37
2019-01-03T12:11:00.106Z,5.49
2019-01-03T12:12:00.122Z,5.46
2019-01-03T12:13:00.040Z,5.51
2019-01-03T12:14:00.075Z,5.55
2019-01-03T12:15:00.019Z,5.47
2019-01-03T12:16:00.044Z,5.52
2019-01-03T12:17:00.012Z,5.69
2019-01-03T12:18:00.067Z,5.59
2019-01-03T12:19:00.007Z,5.55
2019-01-03T12:20:00.225Z,5.47
2019-01-03T12:20:59.961Z,5.52
2019-01-03T12:22:00.000Z,5.52
2019-01-03T12:22:59.960Z,5.56
2019-01-03T12:24:01.053Z,5.56
2019-01-03T12:24:59.914Z,5.55
2019-01-03T12:26:00.068Z,5.65
2019-01-03T12:26:59.899Z,5.65
2019-01-03T12:27:59.946Z,5.64
2019-01-03T12:28:59.880Z,5.72
2019-01-03T12:30:01.927Z,5.72
2019-01-03T12:30:59.895Z,5.64
2019-01-03T12:31:59.849Z,5.74
2019-01-03T12:32:59.826Z,5.70
2019-01-03T12:33:59.872Z,5.56
2019-01-03T12:34:59.832Z,5.62
2019-01-03T12:35:59.909Z,5.55
2019-01-03T12:36:59.827Z,5.54
2019-01-03T12:37:59.798Z,5.59
2019-01-03T12:38:59.801Z,5.73
2019-01-03T12:39:59.852Z,5.73
2019-01-03T12:40:59.749Z,5.74
2019-01-03T12:41:59.815Z,5.83
2019-01-03T12:42:59.717Z,5.81
2019-01-03T12:43:59.754Z,5.94
2019-01-03T12:44:59.729Z,5.88
2019-01-03T12:45:59.765Z,5.90
2019-01-03T12:46:59.680Z,5.87
2019-01-03T12:47:59.762Z,5.84
2019-01-03T12:48:59.665Z,5.79
2019-01-03T12:49:59.716Z,5.77
2019-01-03T12:50:59.638Z,5.74
2019-01-03T12:51:59.680Z,5.76
2019-01-03T12:52:59.623Z,5.84
2019-01-03T12:53:59.696Z,5.92
2019-01-03T12:54:59.664Z,5.84
2019-01-03T12:55:59.611Z,5.88
2019-01-03T12:56:59.574Z,5.99
2019-01-03T12:57:59.630Z,6.09
2019-01-03T12:58:59.541Z,6.15
2019-01-03T12:59:59.669Z,6.16
2019-01-03T13:00:59.519Z,6.09
2019-01-03T13:01:59.644Z,6.13
2019-01-03T13:02:59.506Z,6.12
2019-01-03T13:03:59.659Z,6.01
2019-01-03T13:04:59.504Z,5.98
2019-01-03T13:05:59.578Z,5.97
2019-01-03T13:06:59.465Z,6.13
2019-01-03T13:07:59.517Z,6.13
2019-01-03T13:08:59.437Z,6.41
2019-01-03T13:10:00.555Z,6.67
2019-01-03T13:10:59.411Z,6.67
2019-01-03T13:11:59.504Z,6.62
2019-01-03T13:12:59.383Z,6.53
2019-01-03T13:14:00.572Z,6.46
2019-01-03T13:14:59.504Z,6.72
2019-01-03T13:15:59.435Z,6.75
2019-01-03T13:16:59.339Z,6.77